This is the latest recevied weather packets stored in our database for station/object FHDOHA-13. If no packets are shown the sender has not sent any weather packets the latest 10 day(s).
| Time | Temp. | Humidity | Pressure | Rain* | Wind** | Luminosity | Snow |
|---|---|---|---|---|---|---|---|
| 1777332672 | 8.89° C | 58% | 1021.4 hPa | 0 mm | - | - | - |
| 1777331772 | 8.89° C | 58% | 1021.4 hPa | 0 mm | - | - | - |
| 1777330872 | 8.89° C | 58% | 1021.4 hPa | 0 mm | - | - | - |
| 1777329972 | 8.89° C | 58% | 1021.4 hPa | 0 mm | - | - | - |
| 1777329072 | 9.44° C | 57% | 1021.4 hPa | 0 mm | - | - | - |
| 1777328172 | 9.44° C | 57% | 1021.3 hPa | 0 mm | - | - | - |
| 1777327272 | 9.44° C | 57% | 1021.3 hPa | 0 mm | - | - | - |
| 1777326372 | 9.44° C | 57% | 1021.3 hPa | 0 mm | - | - | - |
| 1777325472 | 9.44° C | 57% | 1021.3 hPa | 0 mm | - | - | - |
| 1777324572 | 9.44° C | 56% | 1021.3 hPa | 0 mm | - | - | - |
| 1777323672 | 10° C | 55% | 1021.3 hPa | 0 mm | - | - | - |
| 1777322772 | 10.56° C | 53% | 1021.2 hPa | 0 mm | - | - | - |
| 1777321872 | 11.11° C | 53% | 1021.2 hPa | 0 mm | - | - | - |
| 1777320972 | 11.11° C | 51% | 1021.1 hPa | 0 mm | - | - | - |
| 1777320072 | 11.67° C | 50% | 1021.1 hPa | 0 mm | - | - | - |
| 1777319172 | 11.67° C | 50% | 1021.1 hPa | 0 mm | - | - | - |
| 1777318272 | 11.67° C | 48% | 1021.1 hPa | 0 mm | - | - | - |
| 1777317372 | 12.22° C | 47% | 1021 hPa | 0 mm | - | - | - |
| 1777316472 | 12.78° C | 47% | 1021 hPa | 0 mm | - | - | - |
| 1777315572 | 13.33° C | 46% | 1020.9 hPa | 0 mm | - | - | - |
| 1777314672 | 13.89° C | 44% | 1020.9 hPa | 0 mm | - | - | - |
| 1777313772 | 14.44° C | 42% | 1020.8 hPa | 0 mm | - | - | - |
| 1777312872 | 16.11° C | 40% | 1020.6 hPa | 0 mm | - | - | - |
| 1777311972 | 15.56° C | 42% | 1020.7 hPa | 0 mm | - | - | - |
| 1777311072 | 15° C | 42% | 1020.8 hPa | 0 mm | - | - | - |
* Rain latest hour (hover to see other rain measurements)
** Current wind speed in m/s (hover to see current wind gust speed)